sensor_id;sensor_type;location;lat;lon;timestamp;pressure;altitude;pressure_sealevel;temperature;humidity
28004;BME280;15330;51.234;6.754;2023-03-19T00:01:42;100679.34;;;12.38;90.84
28004;BME280;15330;51.234;6.754;2023-03-19T00:04:08;100686.63;;;12.30;89.95
28004;BME280;15330;51.234;6.754;2023-03-19T00:06:33;100693.13;;;12.35;89.88
28004;BME280;15330;51.234;6.754;2023-03-19T00:08:58;100684.44;;;12.33;90.19
28004;BME280;15330;51.234;6.754;2023-03-19T00:11:24;100697.00;;;12.33;90.10
28004;BME280;15330;51.234;6.754;2023-03-19T00:13:50;100689.19;;;12.46;90.89
28004;BME280;15330;51.234;6.754;2023-03-19T00:16:15;100677.75;;;12.52;90.27
28004;BME280;15330;51.234;6.754;2023-03-19T00:18:41;100683.81;;;12.23;93.41
28004;BME280;15330;51.234;6.754;2023-03-19T00:21:07;100676.97;;;12.21;91.28
28004;BME280;15330;51.234;6.754;2023-03-19T00:23:33;100672.31;;;12.15;92.13
28004;BME280;15330;51.234;6.754;2023-03-19T00:25:58;100674.44;;;12.19;92.68
28004;BME280;15330;51.234;6.754;2023-03-19T00:28:23;100674.16;;;12.14;92.22
28004;BME280;15330;51.234;6.754;2023-03-19T00:30:50;100674.09;;;12.22;93.22
28004;BME280;15330;51.234;6.754;2023-03-19T00:33:15;100681.31;;;12.22;92.84
28004;BME280;15330;51.234;6.754;2023-03-19T00:35:40;100679.03;;;12.10;90.69
28004;BME280;15330;51.234;6.754;2023-03-19T00:38:06;100675.63;;;12.17;93.09
28004;BME280;15330;51.234;6.754;2023-03-19T00:40:31;100669.09;;;12.19;91.77
28004;BME280;15330;51.234;6.754;2023-03-19T00:42:57;100673.28;;;12.22;90.49
28004;BME280;15330;51.234;6.754;2023-03-19T00:45:23;100669.19;;;12.26;89.92
28004;BME280;15330;51.234;6.754;2023-03-19T00:47:48;100674.06;;;12.30;90.04
28004;BME280;15330;51.234;6.754;2023-03-19T00:50:14;100672.03;;;12.32;91.40
28004;BME280;15330;51.234;6.754;2023-03-19T00:52:39;100679.75;;;12.27;90.65
28004;BME280;15330;51.234;6.754;2023-03-19T00:55:05;100680.59;;;12.28;90.39
28004;BME280;15330;51.234;6.754;2023-03-19T00:57:31;100674.72;;;12.32;91.41
28004;BME280;15330;51.234;6.754;2023-03-19T00:59:56;100675.47;;;12.18;93.63
28004;BME280;15330;51.234;6.754;2023-03-19T01:02:21;100674.16;;;12.14;93.52
28004;BME280;15330;51.234;6.754;2023-03-19T01:04:47;100669.72;;;11.98;90.43
28004;BME280;15330;51.234;6.754;2023-03-19T01:07:13;100674.19;;;12.06;90.45
28004;BME280;15330;51.234;6.754;2023-03-19T01:09:38;100675.81;;;12.15;90.39
28004;BME280;15330;51.234;6.754;2023-03-19T01:12:06;100671.94;;;12.18;90.53
28004;BME280;15330;51.234;6.754;2023-03-19T01:14:32;100673.09;;;12.23;90.91
28004;BME280;15330;51.234;6.754;2023-03-19T01:16:57;100670.59;;;12.22;91.54
28004;BME280;15330;51.234;6.754;2023-03-19T01:19:22;100678.38;;;12.08;91.24
28004;BME280;15330;51.234;6.754;2023-03-19T01:21:48;100674.50;;;12.11;89.51
28004;BME280;15330;51.234;6.754;2023-03-19T01:24:14;100670.44;;;12.15;89.77
28004;BME280;15330;51.234;6.754;2023-03-19T01:26:41;100653.09;;;11.64;90.56
28004;BME280;15330;51.234;6.754;2023-03-19T01:29:06;100656.97;;;11.61;89.84
28004;BME280;15330;51.234;6.754;2023-03-19T01:31:32;100654.41;;;11.76;89.13
28004;BME280;15330;51.234;6.754;2023-03-19T01:33:58;100660.88;;;11.90;89.00
28004;BME280;15330;51.234;6.754;2023-03-19T01:36:24;100660.22;;;11.88;88.04
28004;BME280;15330;51.234;6.754;2023-03-19T01:38:49;100651.50;;;11.94;88.81
28004;BME280;15330;51.234;6.754;2023-03-19T01:41:15;100649.28;;;11.97;88.55
28004;BME280;15330;51.234;6.754;2023-03-19T01:43:41;100651.28;;;12.03;89.32
28004;BME280;15330;51.234;6.754;2023-03-19T01:46:19;100649.59;;;12.02;90.67
28004;BME280;15330;51.234;6.754;2023-03-19T01:48:59;100653.56;;;11.75;89.35
28004;BME280;15330;51.234;6.754;2023-03-19T01:51:27;100647.19;;;11.76;89.20
28004;BME280;15330;51.234;6.754;2023-03-19T01:53:59;100657.53;;;11.88;89.75
28004;BME280;15330;51.234;6.754;2023-03-19T01:56:32;100653.56;;;11.75;87.90
28004;BME280;15330;51.234;6.754;2023-03-19T01:59:06;100656.41;;;11.82;88.86
28004;BME280;15330;51.234;6.754;2023-03-19T02:01:37;100655.25;;;11.68;89.36
28004;BME280;15330;51.234;6.754;2023-03-19T02:04:05;100653.34;;;11.85;88.61
28004;BME280;15330;51.234;6.754;2023-03-19T02:06:31;100660.56;;;11.85;87.64
28004;BME280;15330;51.234;6.754;2023-03-19T02:08:57;100649.88;;;11.76;88.40
28004;BME280;15330;51.234;6.754;2023-03-19T02:11:24;100654.69;;;11.89;89.13
28004;BME280;15330;51.234;6.754;2023-03-19T02:13:50;100662.22;;;11.86;88.56
28004;BME280;15330;51.234;6.754;2023-03-19T02:16:16;100663.44;;;11.83;87.61
28004;BME280;15330;51.234;6.754;2023-03-19T02:18:41;100667.97;;;11.83;87.50
28004;BME280;15330;51.234;6.754;2023-03-19T02:21:09;100664.28;;;11.75;87.49
28004;BME280;15330;51.234;6.754;2023-03-19T02:26:22;100655.25;;;11.68;88.11
28004;BME280;15330;51.234;6.754;2023-03-19T02:28:50;100642.56;;;11.62;88.43
28004;BME280;15330;51.234;6.754;2023-03-19T02:31:17;100646.34;;;11.37;90.74
28004;BME280;15330;51.234;6.754;2023-03-19T02:33:43;100648.25;;;11.59;89.81
28004;BME280;15330;51.234;6.754;2023-03-19T02:36:15;100649.28;;;11.58;89.35
28004;BME280;15330;51.234;6.754;2023-03-19T02:38:43;100639.22;;;11.60;89.11
28004;BME280;15330;51.234;6.754;2023-03-19T02:41:10;100645.03;;;11.72;88.42
28004;BME280;15330;51.234;6.754;2023-03-19T02:43:38;100642.94;;;11.51;88.75
28004;BME280;15330;51.234;6.754;2023-03-19T02:46:07;100647.44;;;11.59;88.12
28004;BME280;15330;51.234;6.754;2023-03-19T02:48:33;100647.94;;;11.54;88.45
28004;BME280;15330;51.234;6.754;2023-03-19T02:50:59;100639.88;;;11.62;88.72
28004;BME280;15330;51.234;6.754;2023-03-19T02:53:24;100643.59;;;11.53;88.80
28004;BME280;15330;51.234;6.754;2023-03-19T02:55:50;100647.31;;;11.44;88.42
28004;BME280;15330;51.234;6.754;2023-03-19T02:58:15;100648.09;;;11.53;88.48
28004;BME280;15330;51.234;6.754;2023-03-19T03:00:41;100642.63;;;11.46;88.69
28004;BME280;15330;51.234;6.754;2023-03-19T03:03:07;100648.44;;;11.58;88.27
28004;BME280;15330;51.234;6.754;2023-03-19T03:05:33;100649.47;;;11.49;88.53
28004;BME280;15330;51.234;6.754;2023-03-19T03:07:58;100646.84;;;11.40;89.18
28004;BME280;15330;51.234;6.754;2023-03-19T03:10:24;100649.41;;;11.65;88.79
28004;BME280;15330;51.234;6.754;2023-03-19T03:12:50;100652.81;;;11.43;88.71
28004;BME280;15330;51.234;6.754;2023-03-19T03:15:15;100653.28;;;11.54;88.37
28004;BME280;15330;51.234;6.754;2023-03-19T03:17:42;100649.47;;;11.49;88.30
28004;BME280;15330;51.234;6.754;2023-03-19T03:20:08;100650.09;;;11.59;87.78
28004;BME280;15330;51.234;6.754;2023-03-19T03:22:36;100646.06;;;11.63;88.17
28004;BME280;15330;51.234;6.754;2023-03-19T03:25:02;100655.75;;;11.64;87.74
28004;BME280;15330;51.234;6.754;2023-03-19T03:27:28;100657.59;;;11.71;87.38
28004;BME280;15330;51.234;6.754;2023-03-19T03:29:54;100656.09;;;11.69;87.37
28004;BME280;15330;51.234;6.754;2023-03-19T03:32:19;100672.84;;;11.63;88.33
28004;BME280;15330;51.234;6.754;2023-03-19T03:34:45;100673.56;;;11.57;88.12
28004;BME280;15330;51.234;6.754;2023-03-19T03:37:10;100670.41;;;11.45;88.82
28004;BME280;15330;51.234;6.754;2023-03-19T03:39:36;100672.22;;;11.53;88.56
28004;BME280;15330;51.234;6.754;2023-03-19T03:42:02;100676.44;;;11.47;88.58
28004;BME280;15330;51.234;6.754;2023-03-19T03:44:27;100665.91;;;11.37;89.22
28004;BME280;15330;51.234;6.754;2023-03-19T03:46:53;100678.28;;;11.47;88.52
28004;BME280;15330;51.234;6.754;2023-03-19T03:49:18;100677.78;;;11.51;87.86
28004;BME280;15330;51.234;6.754;2023-03-19T03:51:44;100676.94;;;11.51;87.94
28004;BME280;15330;51.234;6.754;2023-03-19T03:54:09;100687.47;;;11.52;88.30
28004;BME280;15330;51.234;6.754;2023-03-19T03:56:35;100684.31;;;11.49;88.84
28004;BME280;15330;51.234;6.754;2023-03-19T03:59:01;100690.63;;;11.56;88.26
28004;BME280;15330;51.234;6.754;2023-03-19T04:01:27;100682.56;;;11.72;88.03
28004;BME280;15330;51.234;6.754;2023-03-19T04:03:53;100687.06;;;11.71;87.88
28004;BME280;15330;51.234;6.754;2023-03-19T04:06:20;100691.59;;;11.71;87.94
28004;BME280;15330;51.234;6.754;2023-03-19T04:08:46;100694.59;;;11.68;87.97
28004;BME280;15330;51.234;6.754;2023-03-19T04:11:12;100683.94;;;11.60;88.54
28004;BME280;15330;51.234;6.754;2023-03-19T04:13:38;100690.50;;;11.49;89.18
28004;BME280;15330;51.234;6.754;2023-03-19T04:16:07;100687.94;;;11.56;89.42
28004;BME280;15330;51.234;6.754;2023-03-19T04:18:34;100697.78;;;11.63;89.11
28004;BME280;15330;51.234;6.754;2023-03-19T04:20:59;100692.81;;;11.60;89.43
28004;BME280;15330;51.234;6.754;2023-03-19T04:23:24;100694.47;;;11.61;89.62
28004;BME280;15330;51.234;6.754;2023-03-19T04:25:50;100693.81;;;11.59;90.07
28004;BME280;15330;51.234;6.754;2023-03-19T04:28:16;100705.19;;;11.61;89.88
28004;BME280;15330;51.234;6.754;2023-03-19T04:30:41;100703.00;;;11.65;89.69
28004;BME280;15330;51.234;6.754;2023-03-19T04:33:08;100703.53;;;11.60;90.93
28004;BME280;15330;51.234;6.754;2023-03-19T04:35:35;100706.50;;;11.65;90.18
28004;BME280;15330;51.234;6.754;2023-03-19T04:38:01;100704.53;;;11.59;89.95
28004;BME280;15330;51.234;6.754;2023-03-19T04:40:26;100710.22;;;11.56;90.15
28004;BME280;15330;51.234;6.754;2023-03-19T04:42:52;100716.75;;;11.62;90.16
28004;BME280;15330;51.234;6.754;2023-03-19T04:45:18;100714.53;;;11.65;89.69
28004;BME280;15330;51.234;6.754;2023-03-19T04:47:43;100698.38;;;11.51;90.25
28004;BME280;15330;51.234;6.754;2023-03-19T04:50:09;100716.09;;;11.60;89.84
28004;BME280;15330;51.234;6.754;2023-03-19T04:52:36;100718.75;;;11.60;90.31
28004;BME280;15330;51.234;6.754;2023-03-19T04:55:03;100714.91;;;11.62;89.50
28004;BME280;15330;51.234;6.754;2023-03-19T04:57:28;100715.22;;;11.67;89.22
28004;BME280;15330;51.234;6.754;2023-03-19T04:59:54;100711.03;;;11.65;89.44
28004;BME280;15330;51.234;6.754;2023-03-19T05:02:20;100718.09;;;11.58;89.52
28004;BME280;15330;51.234;6.754;2023-03-19T05:04:46;100727.94;;;11.65;89.37
28004;BME280;15330;51.234;6.754;2023-03-19T05:07:11;100723.25;;;11.75;88.89
28004;BME280;15330;51.234;6.754;2023-03-19T05:09:36;100723.94;;;11.61;89.25
28004;BME280;15330;51.234;6.754;2023-03-19T05:12:02;100722.94;;;11.62;89.71
28004;BME280;15330;51.234;6.754;2023-03-19T05:14:27;100724.09;;;11.76;89.70
28004;BME280;15330;51.234;6.754;2023-03-19T05:16:53;100724.22;;;11.74;89.26
28004;BME280;15330;51.234;6.754;2023-03-19T05:19:18;100727.94;;;11.82;89.45
28004;BME280;15330;51.234;6.754;2023-03-19T05:21:44;100728.59;;;11.75;89.44
28004;BME280;15330;51.234;6.754;2023-03-19T05:24:09;100731.28;;;11.67;90.28
28004;BME280;15330;51.234;6.754;2023-03-19T05:26:35;100733.16;;;11.59;90.67
28004;BME280;15330;51.234;6.754;2023-03-19T05:29:02;100739.69;;;11.56;91.02
28004;BME280;15330;51.234;6.754;2023-03-19T05:31:27;100740.38;;;11.50;91.64
28004;BME280;15330;51.234;6.754;2023-03-19T05:33:53;100736.84;;;11.58;91.00
28004;BME280;15330;51.234;6.754;2023-03-19T05:36:18;100733.03;;;11.36;92.93
28004;BME280;15330;51.234;6.754;2023-03-19T05:38:44;100733.34;;;11.49;92.17
28004;BME280;15330;51.234;6.754;2023-03-19T05:41:09;100737.34;;;11.53;92.17
28004;BME280;15330;51.234;6.754;2023-03-19T05:43:34;100735.53;;;11.46;92.98
28004;BME280;15330;51.234;6.754;2023-03-19T05:46:00;100737.03;;;11.48;92.73
28004;BME280;15330;51.234;6.754;2023-03-19T05:48:27;100740.56;;;11.40;93.51
28004;BME280;15330;51.234;6.754;2023-03-19T05:50:53;100743.75;;;11.36;94.22
28004;BME280;15330;51.234;6.754;2023-03-19T05:53:18;100742.91;;;11.52;93.26
28004;BME280;15330;51.234;6.754;2023-03-19T05:55:44;100745.41;;;11.45;93.76
28004;BME280;15330;51.234;6.754;2023-03-19T05:58:09;100749.91;;;11.45;94.08
28004;BME280;15330;51.234;6.754;2023-03-19T06:00:35;100751.56;;;11.54;93.94
28004;BME280;15330;51.234;6.754;2023-03-19T06:03:00;100749.63;;;11.39;95.09
28004;BME280;15330;51.234;6.754;2023-03-19T06:05:26;100756.59;;;11.57;94.29
28004;BME280;15330;51.234;6.754;2023-03-19T06:07:51;100756.94;;;11.62;94.27
28004;BME280;15330;51.234;6.754;2023-03-19T06:10:17;100754.06;;;11.63;94.39
28004;BME280;15330;51.234;6.754;2023-03-19T06:12:42;100757.59;;;11.56;95.05
28004;BME280;15330;51.234;6.754;2023-03-19T06:15:08;100763.31;;;11.61;94.77
28004;BME280;15330;51.234;6.754;2023-03-19T06:17:34;100762.28;;;11.62;94.51
28004;BME280;15330;51.234;6.754;2023-03-19T06:20:00;100766.16;;;11.59;95.08
28004;BME280;15330;51.234;6.754;2023-03-19T06:22:26;100766.16;;;11.51;95.88
28004;BME280;15330;51.234;6.754;2023-03-19T06:24:51;100779.38;;;11.61;95.68
28004;BME280;15330;51.234;6.754;2023-03-19T06:27:17;100770.53;;;11.52;95.74
28004;BME280;15330;51.234;6.754;2023-03-19T06:29:42;100774.84;;;11.53;95.85
28004;BME280;15330;51.234;6.754;2023-03-19T06:32:08;100785.75;;;11.60;95.89
28004;BME280;15330;51.234;6.754;2023-03-19T06:34:34;100783.22;;;11.58;95.63
28004;BME280;15330;51.234;6.754;2023-03-19T06:36:59;100782.03;;;11.53;95.80
28004;BME280;15330;51.234;6.754;2023-03-19T06:39:26;100787.91;;;11.56;95.46
28004;BME280;15330;51.234;6.754;2023-03-19T06:41:51;100794.63;;;11.60;95.67
28004;BME280;15330;51.234;6.754;2023-03-19T06:44:17;100790.94;;;11.61;95.25
28004;BME280;15330;51.234;6.754;2023-03-19T06:46:42;100790.09;;;11.53;95.57
28004;BME280;15330;51.234;6.754;2023-03-19T06:49:08;100792.59;;;11.62;95.07
28004;BME280;15330;51.234;6.754;2023-03-19T06:51:33;100782.75;;;11.47;96.48
28004;BME280;15330;51.234;6.754;2023-03-19T06:53:58;100795.56;;;11.92;94.83
28004;BME280;15330;51.234;6.754;2023-03-19T06:56:24;100785.53;;;11.86;93.78
28004;BME280;15330;51.234;6.754;2023-03-19T06:58:50;100786.38;;;11.86;93.76
28004;BME280;15330;51.234;6.754;2023-03-19T07:01:15;100789.41;;;11.83;94.20
28004;BME280;15330;51.234;6.754;2023-03-19T07:03:41;100788.03;;;11.87;93.79
28004;BME280;15330;51.234;6.754;2023-03-19T07:06:06;100792.81;;;12.08;92.47
28004;BME280;15330;51.234;6.754;2023-03-19T07:08:32;100798.53;;;12.05;92.75
28004;BME280;15330;51.234;6.754;2023-03-19T07:11:05;100798.72;;;11.95;93.07
28004;BME280;15330;51.234;6.754;2023-03-19T07:13:30;100806.31;;;11.92;93.74
28004;BME280;15330;51.234;6.754;2023-03-19T07:15:57;100805.94;;;11.95;93.77
28004;BME280;15330;51.234;6.754;2023-03-19T07:18:23;100796.22;;;12.02;93.36
28004;BME280;15330;51.234;6.754;2023-03-19T07:20:48;100788.22;;;11.94;93.25
28004;BME280;15330;51.234;6.754;2023-03-19T07:23:14;100811.84;;;11.82;94.38
28004;BME280;15330;51.234;6.754;2023-03-19T07:25:40;100813.31;;;12.01;93.77
28004;BME280;15330;51.234;6.754;2023-03-19T07:28:05;100811.66;;;11.92;94.38
28004;BME280;15330;51.234;6.754;2023-03-19T07:30:31;100813.69;;;12.29;92.51
28004;BME280;15330;51.234;6.754;2023-03-19T07:32:57;100823.75;;;12.27;92.42
28004;BME280;15330;51.234;6.754;2023-03-19T07:35:22;100831.16;;;12.25;92.53
28004;BME280;15330;51.234;6.754;2023-03-19T07:37:48;100837.25;;;12.02;93.50
28004;BME280;15330;51.234;6.754;2023-03-19T07:40:13;100831.63;;;12.28;93.07
28004;BME280;15330;51.234;6.754;2023-03-19T07:42:39;100838.59;;;11.98;93.52
28004;BME280;15330;51.234;6.754;2023-03-19T07:45:05;100836.59;;;12.00;94.21
28004;BME280;15330;51.234;6.754;2023-03-19T07:47:31;100842.13;;;11.99;94.45
28004;BME280;15330;51.234;6.754;2023-03-19T07:49:57;100835.13;;;11.90;95.35
28004;BME280;15330;51.234;6.754;2023-03-19T07:52:23;100846.50;;;11.84;95.75
28004;BME280;15330;51.234;6.754;2023-03-19T07:54:49;100843.44;;;12.11;93.92
28004;BME280;15330;51.234;6.754;2023-03-19T07:57:14;100847.13;;;12.10;93.49
28004;BME280;15330;51.234;6.754;2023-03-19T07:59:40;100850.97;;;12.07;93.71
28004;BME280;15330;51.234;6.754;2023-03-19T08:02:07;100848.00;;;12.02;94.03
28004;BME280;15330;51.234;6.754;2023-03-19T08:04:34;100846.31;;;12.01;93.27
28004;BME280;15330;51.234;6.754;2023-03-19T08:06:59;100849.31;;;12.15;92.91
28004;BME280;15330;51.234;6.754;2023-03-19T08:09:25;100851.78;;;12.24;92.63
28004;BME280;15330;51.234;6.754;2023-03-19T08:11:50;100848.00;;;12.41;91.80
28004;BME280;15330;51.234;6.754;2023-03-19T08:14:15;100853.69;;;12.46;91.26
28004;BME280;15330;51.234;6.754;2023-03-19T08:16:46;100848.06;;;12.33;91.28
28004;BME280;15330;51.234;6.754;2023-03-19T08:19:11;100856.22;;;12.40;91.18
28004;BME280;15330;51.234;6.754;2023-03-19T08:21:37;100852.72;;;12.70;89.67
28004;BME280;15330;51.234;6.754;2023-03-19T08:24:03;100860.72;;;12.47;90.25
28004;BME280;15330;51.234;6.754;2023-03-19T08:26:28;100856.47;;;13.23;88.40
28004;BME280;15330;51.234;6.754;2023-03-19T08:28:53;100852.72;;;13.01;87.63
28004;BME280;15330;51.234;6.754;2023-03-19T08:31:19;100860.94;;;13.00;87.47
28004;BME280;15330;51.234;6.754;2023-03-19T08:33:45;100863.41;;;12.86;88.13
28004;BME280;15330;51.234;6.754;2023-03-19T08:36:13;100857.47;;;12.60;89.10
28004;BME280;15330;51.234;6.754;2023-03-19T08:38:39;100855.91;;;12.74;88.98
28004;BME280;15330;51.234;6.754;2023-03-19T08:41:05;100859.81;;;12.94;88.01
28004;BME280;15330;51.234;6.754;2023-03-19T08:43:31;100859.53;;;13.12;87.67
28004;BME280;15330;51.234;6.754;2023-03-19T08:45:58;100864.13;;;13.03;87.68
28004;BME280;15330;51.234;6.754;2023-03-19T08:48:23;100867.56;;;12.89;88.43
28004;BME280;15330;51.234;6.754;2023-03-19T08:50:59;100880.34;;;13.18;88.05
28004;BME280;15330;51.234;6.754;2023-03-19T08:53:25;100875.38;;;12.99;88.13
28004;BME280;15330;51.234;6.754;2023-03-19T08:55:56;100872.28;;;13.10;87.70
28004;BME280;15330;51.234;6.754;2023-03-19T08:58:22;100873.19;;;13.02;88.36
28004;BME280;15330;51.234;6.754;2023-03-19T09:00:48;100867.53;;;12.97;88.96
28004;BME280;15330;51.234;6.754;2023-03-19T09:03:15;100865.59;;;12.83;90.15
28004;BME280;15330;51.234;6.754;2023-03-19T09:05:40;100877.16;;;12.83;89.93
28004;BME280;15330;51.234;6.754;2023-03-19T09:08:06;100876.59;;;12.96;89.67
28004;BME280;15330;51.234;6.754;2023-03-19T09:10:31;100874.97;;;13.18;89.23
28004;BME280;15330;51.234;6.754;2023-03-19T09:12:57;100876.47;;;13.12;89.47
28004;BME280;15330;51.234;6.754;2023-03-19T09:15:22;100877.31;;;13.13;88.99
28004;BME280;15330;51.234;6.754;2023-03-19T09:17:48;100874.50;;;13.06;89.41
28004;BME280;15330;51.234;6.754;2023-03-19T09:20:14;100875.78;;;13.41;87.71
28004;BME280;15330;51.234;6.754;2023-03-19T09:22:39;100866.38;;;13.45;87.40
28004;BME280;15330;51.234;6.754;2023-03-19T09:25:05;100877.69;;;13.55;86.92
28004;BME280;15330;51.234;6.754;2023-03-19T09:27:31;100879.91;;;13.89;85.70
28004;BME280;15330;51.234;6.754;2023-03-19T09:29:56;100879.19;;;14.25;84.08
28004;BME280;15330;51.234;6.754;2023-03-19T09:32:22;100880.31;;;15.11;80.42
28004;BME280;15330;51.234;6.754;2023-03-19T09:34:48;100877.00;;;17.76;69.24
28004;BME280;15330;51.234;6.754;2023-03-19T09:37:13;100889.69;;;16.82;71.05
28004;BME280;15330;51.234;6.754;2023-03-19T09:39:38;100883.09;;;18.76;65.60
28004;BME280;15330;51.234;6.754;2023-03-19T09:44:57;100893.59;;;19.03;63.75
28004;BME280;15330;51.234;6.754;2023-03-19T09:47:29;100891.66;;;17.01;70.46
28004;BME280;15330;51.234;6.754;2023-03-19T09:49:59;100887.44;;;16.85;70.41
28004;BME280;15330;51.234;6.754;2023-03-19T09:57:46;100897.16;;;16.73;71.27
28004;BME280;15330;51.234;6.754;2023-03-19T10:00:21;100895.31;;;18.91;65.57
28004;BME280;15330;51.234;6.754;2023-03-19T10:03:38;100883.28;;;18.74;63.79
28004;BME280;15330;51.234;6.754;2023-03-19T10:05:45;100885.81;;;15.88;71.80
28004;BME280;15330;51.234;6.754;2023-03-19T10:16:29;100894.00;;;15.73;76.00
28004;BME280;15330;51.234;6.754;2023-03-19T10:19:01;100896.28;;;15.97;74.03
28004;BME280;15330;51.234;6.754;2023-03-19T10:21:32;100896.72;;;14.94;77.03
28004;BME280;15330;51.234;6.754;2023-03-19T10:26:33;100896.34;;;15.55;74.67
28004;BME280;15330;51.234;6.754;2023-03-19T10:29:15;100892.53;;;14.92;78.05
28004;BME280;15330;51.234;6.754;2023-03-19T10:34:48;100904.81;;;14.65;79.00
28004;BME280;15330;51.234;6.754;2023-03-19T10:39:47;100902.03;;;14.44;80.04
28004;BME280;15330;51.234;6.754;2023-03-19T10:42:20;100913.84;;;14.57;79.42
28004;BME280;15330;51.234;6.754;2023-03-19T10:44:56;100915.75;;;14.34;83.58
28004;BME280;15330;51.234;6.754;2023-03-19T10:47:25;100914.91;;;14.19;86.36
28004;BME280;15330;51.234;6.754;2023-03-19T10:49:51;100909.81;;;14.24;86.87
28004;BME280;15330;51.234;6.754;2023-03-19T10:52:36;100925.44;;;14.43;86.70
28004;BME280;15330;51.234;6.754;2023-03-19T10:55:12;100911.34;;;14.41;86.83
28004;BME280;15330;51.234;6.754;2023-03-19T10:57:41;100918.69;;;14.62;86.53
28004;BME280;15330;51.234;6.754;2023-03-19T11:00:18;100918.69;;;14.62;86.15
28004;BME280;15330;51.234;6.754;2023-03-19T11:02:49;100922.81;;;14.35;86.01
28004;BME280;15330;51.234;6.754;2023-03-19T11:07:54;100925.22;;;14.30;86.20
28004;BME280;15330;51.234;6.754;2023-03-19T11:10:21;100916.69;;;14.26;86.33
28004;BME280;15330;51.234;6.754;2023-03-19T11:12:57;100923.22;;;13.94;85.78
28004;BME280;15330;51.234;6.754;2023-03-19T11:15:27;100930.41;;;14.17;85.50
28004;BME280;15330;51.234;6.754;2023-03-19T11:18:05;100925.94;;;14.24;84.42
28004;BME280;15330;51.234;6.754;2023-03-19T11:20:36;100928.25;;;14.12;84.39
28004;BME280;15330;51.234;6.754;2023-03-19T11:23:10;100928.34;;;14.04;83.98
28004;BME280;15330;51.234;6.754;2023-03-19T11:25:51;100927.41;;;13.97;83.60
28004;BME280;15330;51.234;6.754;2023-03-19T11:28:21;100930.44;;;13.94;83.80
28004;BME280;15330;51.234;6.754;2023-03-19T11:31:01;100928.72;;;14.01;83.26
28004;BME280;15330;51.234;6.754;2023-03-19T11:36:54;100921.28;;;14.03;81.50
28004;BME280;15330;51.234;6.754;2023-03-19T11:56:19;100941.97;;;13.65;86.21
28004;BME280;15330;51.234;6.754;2023-03-19T12:09:46;100944.44;;;13.21;84.59
28004;BME280;15330;51.234;6.754;2023-03-19T12:12:40;100949.81;;;13.21;84.67
28004;BME280;15330;51.234;6.754;2023-03-19T12:15:28;100951.81;;;13.27;84.73
28004;BME280;15330;51.234;6.754;2023-03-19T12:18:09;100939.09;;;13.67;84.50
28004;BME280;15330;51.234;6.754;2023-03-19T12:21:08;100930.84;;;13.45;82.95
28004;BME280;15330;51.234;6.754;2023-03-19T12:23:53;100936.00;;;13.55;83.39
28004;BME280;15330;51.234;6.754;2023-03-19T12:31:31;100940.03;;;13.51;81.52
28004;BME280;15330;51.234;6.754;2023-03-19T12:34:40;100936.97;;;14.00;81.27
28004;BME280;15330;51.234;6.754;2023-03-19T12:39:38;100937.31;;;14.49;80.70
28004;BME280;15330;51.234;6.754;2023-03-19T12:42:09;100932.28;;;14.75;79.57
28004;BME280;15330;51.234;6.754;2023-03-19T12:44:44;100925.69;;;14.78;79.74
28004;BME280;15330;51.234;6.754;2023-03-19T12:47:19;100936.34;;;14.86;78.14
28004;BME280;15330;51.234;6.754;2023-03-19T12:49:50;100932.88;;;15.42;77.66
28004;BME280;15330;51.234;6.754;2023-03-19T12:52:23;100933.47;;;15.02;77.62
28004;BME280;15330;51.234;6.754;2023-03-19T12:54:58;100932.28;;;14.75;80.71
28004;BME280;15330;51.234;6.754;2023-03-19T13:05:54;100933.53;;;15.45;78.34
28004;BME280;15330;51.234;6.754;2023-03-19T13:10:53;100927.47;;;16.06;75.37
28004;BME280;15330;51.234;6.754;2023-03-19T13:16:29;100929.88;;;16.23;73.54
28004;BME280;15330;51.234;6.754;2023-03-19T13:19:04;100929.91;;;15.73;73.84
28004;BME280;15330;51.234;6.754;2023-03-19T13:21:36;100932.22;;;15.55;73.74
28004;BME280;15330;51.234;6.754;2023-03-19T13:24:14;100924.03;;;15.70;73.24
28004;BME280;15330;51.234;6.754;2023-03-19T13:26:43;100921.66;;;15.82;72.42
28004;BME280;15330;51.234;6.754;2023-03-19T13:29:23;100921.72;;;16.16;71.46
28004;BME280;15330;51.234;6.754;2023-03-19T13:31:50;100922.66;;;16.64;71.52
28004;BME280;15330;51.234;6.754;2023-03-19T13:36:42;100924.72;;;16.00;73.47
28004;BME280;15330;51.234;6.754;2023-03-19T13:39:17;100918.53;;;16.40;72.29
28004;BME280;15330;51.234;6.754;2023-03-19T13:41:46;100923.88;;;16.27;71.30
28004;BME280;15330;51.234;6.754;2023-03-19T13:46:46;100916.19;;;17.06;69.97
28004;BME280;15330;51.234;6.754;2023-03-19T13:51:38;100915.22;;;16.73;68.57
28004;BME280;15330;51.234;6.754;2023-03-19T13:59:34;100912.47;;;16.32;71.09
28004;BME280;15330;51.234;6.754;2023-03-19T14:02:44;100907.03;;;16.25;71.15
28004;BME280;15330;51.234;6.754;2023-03-19T14:05:03;100907.38;;;16.09;71.90
28004;BME280;15330;51.234;6.754;2023-03-19T14:07:36;100918.78;;;16.11;71.86
28004;BME280;15330;51.234;6.754;2023-03-19T14:12:34;100920.28;;;16.20;72.49
28004;BME280;15330;51.234;6.754;2023-03-19T14:17:34;100925.69;;;16.55;71.64
28004;BME280;15330;51.234;6.754;2023-03-19T14:20:24;100923.88;;;16.62;71.98
28004;BME280;15330;51.234;6.754;2023-03-19T14:23:22;100930.31;;;16.26;73.99
28004;BME280;15330;51.234;6.754;2023-03-19T14:28:59;100920.94;;;15.30;76.23
28004;BME280;15330;51.234;6.754;2023-03-19T14:32:20;100919.94;;;15.74;75.14
28004;BME280;15330;51.234;6.754;2023-03-19T14:34:39;100922.75;;;15.87;74.25
28004;BME280;15330;51.234;6.754;2023-03-19T14:37:21;100923.47;;;15.74;74.93
28004;BME280;15330;51.234;6.754;2023-03-19T14:40:11;100925.41;;;15.59;75.06